createdAt,value
2023-11-23T00:00:32.264Z,71.97
2023-11-23T00:03:03.239Z,72.14
2023-11-23T00:05:33.871Z,72.42
2023-11-23T00:08:04.624Z,72.23
2023-11-23T00:10:35.192Z,71.77
2023-11-23T00:13:05.975Z,71.75
2023-11-23T00:15:36.778Z,71.69
2023-11-23T00:18:07.519Z,71.87
2023-11-23T00:20:38.789Z,71.92
2023-11-23T00:23:10.752Z,71.30
2023-11-23T00:25:41.426Z,71.88
2023-11-23T00:28:14.686Z,71.74
2023-11-23T00:30:45.247Z,71.58
2023-11-23T00:33:16.970Z,71.22
2023-11-23T00:35:47.710Z,71.72
2023-11-23T00:38:20.157Z,71.62
2023-11-23T00:40:50.800Z,71.77
2023-11-23T00:43:21.374Z,72.16
2023-11-23T00:45:51.860Z,71.80
2023-11-23T00:48:22.775Z,72.32
2023-11-23T00:50:53.633Z,72.25
2023-11-23T00:53:24.471Z,72.37
2023-11-23T00:55:58.291Z,72.48
2023-11-23T00:58:28.977Z,72.71
2023-11-23T01:00:59.547Z,72.62
2023-11-23T01:03:30.281Z,72.44
2023-11-23T01:06:01.215Z,72.36
2023-11-23T01:08:31.712Z,72.97
2023-11-23T01:11:03.415Z,72.45
2023-11-23T01:13:34.130Z,72.34
2023-11-23T01:16:05.584Z,72.34
2023-11-23T01:18:36.291Z,72.07
2023-11-23T01:21:06.953Z,71.92
2023-11-23T01:23:37.648Z,71.92
2023-11-23T01:26:08.761Z,72.05
2023-11-23T01:28:39.276Z,71.66
2023-11-23T01:31:10.583Z,71.80
2023-11-23T01:33:41.567Z,71.57
2023-11-23T01:36:13.878Z,71.74
2023-11-23T01:38:45.574Z,71.39
2023-11-23T01:41:16.376Z,71.65
2023-11-23T01:43:47.731Z,71.82
2023-11-23T01:46:18.513Z,71.70
2023-11-23T01:48:50.998Z,71.93
2023-11-23T01:51:22.364Z,71.60
2023-11-23T01:53:54.596Z,71.18
2023-11-23T01:56:27.317Z,71.38
2023-11-23T01:59:00.572Z,71.76
2023-11-23T02:01:31.314Z,71.76
2023-11-23T02:04:02.099Z,71.35
2023-11-23T02:06:32.754Z,71.68
2023-11-23T02:09:04.531Z,71.69
2023-11-23T02:11:37.597Z,72.05
2023-11-23T02:14:09.308Z,72.02
2023-11-23T02:16:40.644Z,72.06
2023-11-23T02:19:11.375Z,71.75
2023-11-23T02:21:41.934Z,72.31
2023-11-23T02:24:13.281Z,72.63
2023-11-23T02:26:43.859Z,72.57
2023-11-23T02:29:14.923Z,73.08
2023-11-23T02:31:45.422Z,73.36
2023-11-23T02:34:16.063Z,73.07
2023-11-23T02:36:47.389Z,72.99
2023-11-23T02:39:19.225Z,73.40
2023-11-23T02:41:49.995Z,72.91
2023-11-23T02:44:20.516Z,73.01
2023-11-23T02:46:51.356Z,72.80
2023-11-23T02:49:23.814Z,72.99
2023-11-23T02:51:55.690Z,73.08
2023-11-23T02:54:27.832Z,73.08
2023-11-23T02:56:58.536Z,73.03
2023-11-23T02:59:29.266Z,73.33
2023-11-23T03:02:01.549Z,73.49
2023-11-23T03:04:32.325Z,73.43
2023-11-23T03:07:03.061Z,73.75
2023-11-23T03:09:34.052Z,73.48
2023-11-23T03:12:04.953Z,73.87
2023-11-23T03:14:35.873Z,74.08
2023-11-23T03:17:09.276Z,74.02
2023-11-23T03:19:40.737Z,74.35
2023-11-23T03:22:11.424Z,73.96
2023-11-23T03:24:42.055Z,73.85
2023-11-23T03:27:13.866Z,74.46
2023-11-23T03:29:44.668Z,74.46
2023-11-23T03:32:15.783Z,74.47
2023-11-23T03:34:46.963Z,74.48
2023-11-23T03:37:17.552Z,74.57
2023-11-23T03:39:48.570Z,74.26
2023-11-23T03:42:19.768Z,74.32
2023-11-23T03:44:50.628Z,74.66
2023-11-23T03:47:21.143Z,74.74
2023-11-23T03:49:52.631Z,74.96
2023-11-23T03:52:24.068Z,75.42
2023-11-23T03:54:54.654Z,75.38
2023-11-23T03:57:25.765Z,75.08
2023-11-23T03:59:56.733Z,75.36
2023-11-23T04:02:30.220Z,75.98
2023-11-23T04:05:00.868Z,76.04
2023-11-23T04:07:33.263Z,76.08
2023-11-23T04:10:04.929Z,76.13
2023-11-23T04:12:37.237Z,76.19
2023-11-23T04:15:08.949Z,76.62
2023-11-23T04:17:39.929Z,76.54
2023-11-23T04:20:10.997Z,76.41
2023-11-23T04:22:41.455Z,76.82
2023-11-23T04:25:12.138Z,76.84
2023-11-23T04:27:44.772Z,77.14
2023-11-23T04:30:15.746Z,77.11
2023-11-23T04:32:47.486Z,77.15
2023-11-23T04:35:18.389Z,77.40
2023-11-23T04:37:49.358Z,77.61
2023-11-23T04:40:20.073Z,77.65
2023-11-23T04:42:50.577Z,77.02
2023-11-23T04:45:21.925Z,77.89
2023-11-23T04:47:53.428Z,77.86
2023-11-23T04:50:26.428Z,77.92
2023-11-23T04:52:58.317Z,78.26
2023-11-23T04:55:33.074Z,78.51
2023-11-23T04:58:06.434Z,78.24
2023-11-23T05:00:37.369Z,78.26
2023-11-23T05:03:08.095Z,78.16
2023-11-23T05:05:38.993Z,78.59
2023-11-23T05:08:11.011Z,78.84
2023-11-23T05:10:41.482Z,79.08
2023-11-23T05:13:12.080Z,79.23
2023-11-23T05:15:43.106Z,79.28
2023-11-23T05:18:15.120Z,79.68
2023-11-23T05:20:46.111Z,79.87
2023-11-23T05:23:16.672Z,80.29
2023-11-23T05:25:47.219Z,80.44
2023-11-23T05:28:24.032Z,80.71
2023-11-23T05:30:54.750Z,80.92
2023-11-23T05:33:26.107Z,81.50
2023-11-23T05:35:56.838Z,81.98
2023-11-23T05:38:27.494Z,82.32
2023-11-23T05:40:58.231Z,82.63
2023-11-23T05:43:28.695Z,83.00
2023-11-23T05:45:59.607Z,82.97
2023-11-23T05:48:30.808Z,82.78
2023-11-23T05:51:01.551Z,83.16
2023-11-23T05:53:32.010Z,82.99
2023-11-23T05:56:04.071Z,83.18
2023-11-23T05:58:34.579Z,83.25
2023-11-23T06:01:10.122Z,83.32
2023-11-23T06:03:39.048Z,83.20
2023-11-23T06:06:10.805Z,83.22
2023-11-23T06:08:41.246Z,83.36
2023-11-23T06:11:11.722Z,83.50
2023-11-23T06:13:45.954Z,83.66
2023-11-23T06:16:17.012Z,83.78
2023-11-23T06:18:47.539Z,83.96
2023-11-23T06:21:18.524Z,84.04
2023-11-23T06:23:51.005Z,84.46
2023-11-23T06:26:22.018Z,84.74
2023-11-23T06:28:52.651Z,85.24
2023-11-23T06:31:24.198Z,85.22
2023-11-23T06:33:54.784Z,85.45
2023-11-23T06:36:25.572Z,86.00
2023-11-23T06:38:56.560Z,85.85
2023-11-23T06:41:27.104Z,86.34
2023-11-23T06:43:57.927Z,86.33
2023-11-23T06:46:29.660Z,87.32
2023-11-23T06:49:00.243Z,87.46
2023-11-23T06:51:32.938Z,87.76
2023-11-23T06:54:03.825Z,87.71
2023-11-23T06:56:35.658Z,88.05
2023-11-23T06:59:07.596Z,88.13
2023-11-23T07:01:38.130Z,88.39
2023-11-23T07:04:08.968Z,88.35
2023-11-23T07:06:39.800Z,88.34
2023-11-23T07:09:11.992Z,88.16
2023-11-23T07:11:42.685Z,88.51
2023-11-23T07:14:13.274Z,88.24
2023-11-23T07:16:44.101Z,88.51
2023-11-23T07:19:14.670Z,88.48
2023-11-23T07:21:47.733Z,88.40
2023-11-23T07:24:18.752Z,88.23
2023-11-23T07:26:51.564Z,88.12
2023-11-23T07:29:22.132Z,87.92
2023-11-23T07:31:54.154Z,87.89
2023-11-23T07:34:26.056Z,87.64
2023-11-23T07:36:56.648Z,87.46
2023-11-23T07:39:27.950Z,87.57
2023-11-23T07:42:00.099Z,87.53
2023-11-23T07:44:30.873Z,87.06
2023-11-23T07:47:01.681Z,86.96
2023-11-23T07:49:32.399Z,87.34
2023-11-23T07:52:03.014Z,87.81
2023-11-23T07:54:35.107Z,87.78
2023-11-23T07:57:06.356Z,88.03
2023-11-23T07:59:37.874Z,88.06
2023-11-23T08:02:09.042Z,88.39
2023-11-23T08:04:39.911Z,88.02
2023-11-23T08:07:10.798Z,87.95
2023-11-23T08:09:41.422Z,88.16
2023-11-23T08:12:13.030Z,88.21
2023-11-23T08:14:43.711Z,88.10
2023-11-23T08:17:14.577Z,87.81
2023-11-23T08:19:47.923Z,87.68
2023-11-23T08:22:20.410Z,87.94
2023-11-23T08:24:51.045Z,87.94
2023-11-23T08:27:22.796Z,87.86
2023-11-23T08:29:53.734Z,87.92
2023-11-23T08:32:25.347Z,87.49
2023-11-23T08:34:57.265Z,87.71
2023-11-23T08:37:28.605Z,87.68
2023-11-23T08:39:59.214Z,87.81
2023-11-23T08:42:29.937Z,87.47
2023-11-23T08:45:01.132Z,87.43
2023-11-23T08:47:31.665Z,87.41
2023-11-23T08:50:03.932Z,87.22
2023-11-23T08:52:34.802Z,87.13
2023-11-23T08:55:06.251Z,86.84
2023-11-23T08:57:47.270Z,86.85
2023-11-23T09:00:20.598Z,86.82
2023-11-23T09:02:54.637Z,86.70
2023-11-23T09:05:25.557Z,86.32
2023-11-23T09:07:56.508Z,86.43
2023-11-23T09:10:27.212Z,86.16
2023-11-23T09:12:57.794Z,86.46
2023-11-23T09:15:28.407Z,85.73
2023-11-23T09:17:59.604Z,85.93
2023-11-23T09:20:30.145Z,85.75
2023-11-23T09:23:05.926Z,85.80
2023-11-23T09:25:37.845Z,85.65
2023-11-23T09:28:09.291Z,85.48
2023-11-23T09:30:39.900Z,85.72
2023-11-23T09:33:11.255Z,85.67
2023-11-23T09:35:43.981Z,85.87
2023-11-23T09:38:14.625Z,85.91
2023-11-23T09:40:46.972Z,85.72
2023-11-23T09:43:17.750Z,86.00
2023-11-23T09:45:49.005Z,85.57
2023-11-23T09:48:22.320Z,85.81
2023-11-23T09:50:54.073Z,85.65
2023-11-23T09:53:26.784Z,85.80
2023-11-23T09:55:58.119Z,85.60
2023-11-23T09:58:29.398Z,85.56
2023-11-23T10:01:02.974Z,85.70
2023-11-23T10:03:36.491Z,85.74
2023-11-23T10:06:07.717Z,85.81
2023-11-23T10:08:38.403Z,85.76
2023-11-23T10:11:08.969Z,85.82
2023-11-23T10:13:39.473Z,86.09
2023-11-23T10:16:14.298Z,86.47
2023-11-23T10:18:45.058Z,86.46
2023-11-23T10:21:15.898Z,86.56
2023-11-23T10:23:47.846Z,86.79
2023-11-23T10:26:19.807Z,87.10
2023-11-23T10:28:50.348Z,87.01
2023-11-23T10:31:21.463Z,87.46
2023-11-23T10:33:52.525Z,87.30
2023-11-23T10:36:26.215Z,87.53
2023-11-23T10:39:01.803Z,87.68
2023-11-23T10:41:33.908Z,87.98
2023-11-23T10:44:05.261Z,88.11
2023-11-23T10:46:40.730Z,88.48
2023-11-23T10:49:13.430Z,88.34
2023-11-23T10:51:45.859Z,88.44
2023-11-23T10:54:16.803Z,88.40
2023-11-23T10:56:48.574Z,88.50
2023-11-23T10:59:22.201Z,88.62
2023-11-23T11:01:56.012Z,88.96
2023-11-23T11:04:31.274Z,88.56
2023-11-23T11:07:05.223Z,88.55
2023-11-23T11:09:36.965Z,88.45
2023-11-23T11:12:16.135Z,88.56
2023-11-23T11:14:49.671Z,88.55
2023-11-23T11:17:20.179Z,88.61
2023-11-23T11:19:54.381Z,88.73
2023-11-23T11:22:24.949Z,88.64
2023-11-23T11:25:03.047Z,88.85
2023-11-23T11:27:35.569Z,88.86
2023-11-23T11:30:09.583Z,89.04
2023-11-23T11:32:45.496Z,89.04
2023-11-23T11:35:20.028Z,89.18
2023-11-23T11:37:52.504Z,89.40
2023-11-23T11:40:23.641Z,89.41
2023-11-23T11:42:55.608Z,89.31
2023-11-23T11:45:26.332Z,89.31
2023-11-23T11:48:00.721Z,89.38
2023-11-23T11:50:31.377Z,89.39
2023-11-23T11:53:02.175Z,89.48
2023-11-23T11:55:33.085Z,89.22
2023-11-23T11:58:05.307Z,89.36
2023-11-23T12:00:37.020Z,89.42
2023-11-23T12:03:07.715Z,89.49
2023-11-23T12:05:42.875Z,89.71
2023-11-23T12:08:14.096Z,89.95
2023-11-23T12:10:45.414Z,89.63
2023-11-23T12:13:26.441Z,89.54
2023-11-23T12:15:57.339Z,89.22
2023-11-23T12:18:37.130Z,89.52
2023-11-23T12:21:15.103Z,89.18
2023-11-23T12:23:46.658Z,88.72
2023-11-23T12:26:17.499Z,88.81
2023-11-23T12:28:51.975Z,88.80
2023-11-23T12:31:22.781Z,89.10
2023-11-23T12:33:53.850Z,88.88
2023-11-23T12:36:25.590Z,88.99
2023-11-23T12:38:58.218Z,89.08
2023-11-23T12:41:31.142Z,88.72
2023-11-23T12:44:01.122Z,88.95
2023-11-23T12:46:32.559Z,88.86
2023-11-23T12:49:05.023Z,88.72
2023-11-23T12:51:35.817Z,88.27
2023-11-23T12:54:07.815Z,88.31
2023-11-23T12:56:40.395Z,87.93
2023-11-23T12:59:11.719Z,87.97
2023-11-23T13:01:44.070Z,87.51
2023-11-23T13:04:15.306Z,87.53
2023-11-23T13:06:46.199Z,87.41
2023-11-23T13:09:17.243Z,87.07
2023-11-23T13:11:49.146Z,86.91
2023-11-23T13:14:21.470Z,86.73
2023-11-23T13:16:52.257Z,86.63
2023-11-23T13:19:30.581Z,86.57
2023-11-23T13:21:55.732Z,86.29
2023-11-23T13:24:27.600Z,86.60
2023-11-23T13:26:58.465Z,86.24
2023-11-23T13:29:29.016Z,86.31
2023-11-23T13:31:59.633Z,86.36
2023-11-23T13:34:31.933Z,86.27
2023-11-23T13:37:03.547Z,86.64
2023-11-23T13:39:35.896Z,86.67
2023-11-23T13:42:06.981Z,86.68
2023-11-23T13:44:37.554Z,86.47
2023-11-23T13:47:10.054Z,86.69
2023-11-23T13:49:43.505Z,86.61
2023-11-23T13:52:18.823Z,86.57
2023-11-23T13:54:52.232Z,87.09
2023-11-23T13:57:25.105Z,87.16
2023-11-23T13:59:59.466Z,87.32
2023-11-23T14:02:30.063Z,87.10
2023-11-23T14:05:00.590Z,87.22
2023-11-23T14:07:31.401Z,87.27
2023-11-23T14:10:03.625Z,87.49
2023-11-23T14:12:35.026Z,87.47
2023-11-23T14:15:07.132Z,87.57
2023-11-23T14:17:38.249Z,87.71
2023-11-23T14:20:10.771Z,87.80
2023-11-23T14:22:47.448Z,87.97
2023-11-23T14:25:18.805Z,87.94
2023-11-23T14:27:50.269Z,87.79
2023-11-23T14:30:22.678Z,87.65
2023-11-23T14:32:55.965Z,87.62
2023-11-23T14:35:30.237Z,87.79
2023-11-23T14:38:02.580Z,88.18
2023-11-23T14:40:37.073Z,88.30
2023-11-23T14:43:09.792Z,88.62
2023-11-23T14:45:40.371Z,89.02
2023-11-23T14:48:12.713Z,88.72
2023-11-23T14:50:45.164Z,89.26
2023-11-23T14:53:15.686Z,89.51
2023-11-23T14:55:49.806Z,89.31
2023-11-23T14:58:20.584Z,89.30
2023-11-23T15:00:53.214Z,89.52
2023-11-23T15:03:24.371Z,89.40
2023-11-23T15:05:55.095Z,89.09
2023-11-23T15:08:26.470Z,88.79
2023-11-23T15:10:57.213Z,88.89
2023-11-23T15:13:35.979Z,88.53
2023-11-23T15:16:03.157Z,88.35
2023-11-23T15:18:36.532Z,88.35
2023-11-23T15:21:06.777Z,88.09
2023-11-23T15:23:38.267Z,87.92
2023-11-23T15:26:11.316Z,87.74
2023-11-23T15:28:44.179Z,87.70
2023-11-23T15:31:17.152Z,87.41
2023-11-23T15:33:48.775Z,87.35
2023-11-23T15:36:20.405Z,87.07
2023-11-23T15:38:52.262Z,87.14
2023-11-23T15:41:25.874Z,86.79
2023-11-23T15:43:59.356Z,86.76
2023-11-23T15:46:30.619Z,86.55
2023-11-23T15:49:03.353Z,86.43
2023-11-23T15:51:35.783Z,86.09
2023-11-23T15:54:10.719Z,86.27
2023-11-23T15:56:41.197Z,86.15
2023-11-23T15:59:13.499Z,85.92
2023-11-23T16:01:45.708Z,86.15
2023-11-23T16:04:16.554Z,85.91
2023-11-23T16:06:47.160Z,86.03
2023-11-23T16:09:20.685Z,86.30
2023-11-23T16:11:51.616Z,86.14
2023-11-23T16:14:24.908Z,86.26
2023-11-23T16:16:57.149Z,86.26
2023-11-23T16:19:29.731Z,86.29
2023-11-23T16:22:03.720Z,86.18
2023-11-23T16:24:37.132Z,86.20
2023-11-23T16:27:08.648Z,86.22
2023-11-23T16:29:39.540Z,85.86
2023-11-23T16:32:11.667Z,85.76
2023-11-23T16:34:42.360Z,85.45
2023-11-23T16:37:12.974Z,85.58
2023-11-23T16:39:44.637Z,85.23
2023-11-23T16:42:15.655Z,85.45
2023-11-23T16:44:47.838Z,85.31
2023-11-23T16:47:18.540Z,85.68
2023-11-23T16:49:49.702Z,85.51
2023-11-23T16:52:20.350Z,86.09
2023-11-23T16:54:51.089Z,86.01
2023-11-23T16:57:21.860Z,86.36
2023-11-23T16:59:52.433Z,86.73
2023-11-23T17:02:23.819Z,86.91
2023-11-23T17:04:56.047Z,87.57
2023-11-23T17:07:26.424Z,87.85
2023-11-23T17:09:59.260Z,87.76
2023-11-23T17:12:29.913Z,88.18
2023-11-23T17:15:03.385Z,88.12
2023-11-23T17:17:35.744Z,88.39
2023-11-23T17:20:07.871Z,88.63
2023-11-23T17:22:39.544Z,88.42
2023-11-23T17:25:13.368Z,88.65
2023-11-23T17:27:45.967Z,88.60
2023-11-23T17:30:17.076Z,88.42
2023-11-23T17:32:49.794Z,88.29
2023-11-23T17:35:22.535Z,88.29
2023-11-23T17:37:54.453Z,88.10
2023-11-23T17:40:25.056Z,87.56
2023-11-23T17:42:56.386Z,87.20
2023-11-23T17:45:26.969Z,87.05
2023-11-23T17:47:57.972Z,87.09
2023-11-23T17:50:29.690Z,86.97
2023-11-23T17:53:00.331Z,87.32
2023-11-23T17:55:32.664Z,87.58
2023-11-23T17:58:04.171Z,87.74
2023-11-23T18:00:36.539Z,87.94
2023-11-23T18:03:07.928Z,88.46
2023-11-23T18:05:41.373Z,88.89
2023-11-23T18:08:12.319Z,88.82
2023-11-23T18:10:42.971Z,89.00
2023-11-23T18:13:14.071Z,88.91
2023-11-23T18:15:48.079Z,89.34
2023-11-23T18:18:23.868Z,89.64
2023-11-23T18:20:52.480Z,89.44
2023-11-23T18:23:25.279Z,88.84
2023-11-23T18:25:56.836Z,88.91
2023-11-23T18:28:27.569Z,88.83
2023-11-23T18:30:58.275Z,88.74
2023-11-23T18:33:30.760Z,88.47
2023-11-23T18:36:02.377Z,88.47
2023-11-23T18:38:37.106Z,88.39
2023-11-23T18:41:09.789Z,88.70
2023-11-23T18:43:40.551Z,88.98
2023-11-23T18:46:13.531Z,89.45
2023-11-23T18:48:44.854Z,89.73
2023-11-23T18:51:15.762Z,89.64
2023-11-23T18:53:46.497Z,89.18
2023-11-23T18:56:18.192Z,89.34
2023-11-23T18:58:49.735Z,89.04
2023-11-23T19:01:20.268Z,89.16
2023-11-23T19:03:51.267Z,87.94
2023-11-23T19:06:23.459Z,87.54
2023-11-23T19:08:58.171Z,88.29
2023-11-23T19:11:28.725Z,88.81
2023-11-23T19:13:59.470Z,88.87
2023-11-23T19:16:33.496Z,88.60
2023-11-23T19:19:08.570Z,88.63
2023-11-23T19:21:39.717Z,88.85
2023-11-23T19:24:12.044Z,88.75
2023-11-23T19:26:44.273Z,89.32
2023-11-23T19:29:15.620Z,87.72
2023-11-23T19:31:51.204Z,89.97
2023-11-23T19:34:23.541Z,91.87
2023-11-23T19:36:57.479Z,92.15
2023-11-23T19:39:33.077Z,92.33
2023-11-23T19:42:06.003Z,92.46
2023-11-23T19:44:42.959Z,92.56
2023-11-23T19:47:18.689Z,92.62
2023-11-23T19:49:50.259Z,92.41
2023-11-23T19:52:25.394Z,92.10
2023-11-23T19:54:57.825Z,92.39
2023-11-23T19:57:29.934Z,92.42
2023-11-23T20:00:03.801Z,92.06
2023-11-23T20:02:38.272Z,92.30
2023-11-23T20:05:13.297Z,92.04
2023-11-23T20:07:43.886Z,91.99
2023-11-23T20:10:15.067Z,92.36
2023-11-23T20:12:47.223Z,92.27
2023-11-23T20:15:18.437Z,92.39
2023-11-23T20:17:49.882Z,92.42
2023-11-23T20:20:20.899Z,92.42
2023-11-23T20:22:51.479Z,92.07
2023-11-23T20:25:22.604Z,92.06
2023-11-23T20:27:53.817Z,91.53
2023-11-23T20:30:26.200Z,91.66
2023-11-23T20:32:56.871Z,91.41
2023-11-23T20:35:28.415Z,91.39
2023-11-23T20:37:59.418Z,91.19
2023-11-23T20:40:30.657Z,91.40
2023-11-23T20:43:02.329Z,90.94
2023-11-23T20:45:34.047Z,91.17
2023-11-23T20:48:07.854Z,91.01
2023-11-23T20:50:38.631Z,90.71
2023-11-23T20:53:09.565Z,91.01
2023-11-23T20:55:44.372Z,91.13
2023-11-23T20:58:16.035Z,91.21
2023-11-23T21:00:47.176Z,91.46
2023-11-23T21:03:20.375Z,91.17
2023-11-23T21:05:51.405Z,90.43
2023-11-23T21:08:22.626Z,90.04
2023-11-23T21:10:54.988Z,89.99
2023-11-23T21:13:27.025Z,89.43
2023-11-23T21:16:04.808Z,89.56
2023-11-23T21:18:32.405Z,89.43
2023-11-23T21:21:05.799Z,89.48
2023-11-23T21:23:38.914Z,88.53
2023-11-23T21:26:11.106Z,89.10
2023-11-23T21:28:44.363Z,88.36
2023-11-23T21:31:14.979Z,87.93
2023-11-23T21:33:46.743Z,87.87
2023-11-23T21:36:18.915Z,88.05
2023-11-23T21:38:49.848Z,87.55
2023-11-23T21:41:20.345Z,88.01
2023-11-23T21:43:50.779Z,88.33
2023-11-23T21:46:21.838Z,87.53
2023-11-23T21:48:53.573Z,87.18
2023-11-23T21:51:28.549Z,88.03
2023-11-23T21:53:59.160Z,86.89
2023-11-23T21:56:30.312Z,87.26
2023-11-23T21:59:01.439Z,86.81
2023-11-23T22:01:33.336Z,87.22
2023-11-23T22:04:04.761Z,85.88
2023-11-23T22:06:37.096Z,85.14
2023-11-23T22:09:09.490Z,85.72
2023-11-23T22:11:40.230Z,85.12
2023-11-23T22:14:11.596Z,86.01
2023-11-23T22:16:42.370Z,84.46
2023-11-23T22:19:13.092Z,82.25
2023-11-23T22:21:48.063Z,82.40
2023-11-23T22:24:19.747Z,84.06
2023-11-23T22:26:50.670Z,83.54
2023-11-23T22:29:21.401Z,84.24
2023-11-23T22:31:53.505Z,83.57
2023-11-23T22:34:24.716Z,84.46
2023-11-23T22:36:58.101Z,84.23
2023-11-23T22:39:30.092Z,83.66
2023-11-23T22:42:01.544Z,83.43
2023-11-23T22:44:33.062Z,82.99
2023-11-23T22:47:15.502Z,82.18
2023-11-23T22:49:48.122Z,81.43
2023-11-23T22:52:19.486Z,81.85
2023-11-23T22:54:50.920Z,83.14
2023-11-23T22:57:21.492Z,83.04
2023-11-23T22:59:52.233Z,83.11
2023-11-23T23:02:24.337Z,82.83
2023-11-23T23:04:55.363Z,83.30
2023-11-23T23:07:26.419Z,83.93
2023-11-23T23:09:57.035Z,84.42
2023-11-23T23:12:28.193Z,84.25
2023-11-23T23:14:59.917Z,83.27
2023-11-23T23:17:31.605Z,83.80
2023-11-23T23:20:03.810Z,83.17
2023-11-23T23:22:35.757Z,82.73
2023-11-23T23:25:07.096Z,83.36
2023-11-23T23:27:37.678Z,81.98
2023-11-23T23:30:11.909Z,81.90
2023-11-23T23:32:43.938Z,81.65
2023-11-23T23:35:14.917Z,81.05
2023-11-23T23:37:45.665Z,81.04
2023-11-23T23:40:16.489Z,80.85
2023-11-23T23:42:48.743Z,80.52
2023-11-23T23:45:21.526Z,80.19
2023-11-23T23:47:52.171Z,79.57
2023-11-23T23:50:24.386Z,79.80
2023-11-23T23:52:54.884Z,79.02
2023-11-23T23:55:25.499Z,79.18
2023-11-23T23:57:58.114Z,79.65
